KCEW/CEW METAR and TAF weather

Enter ICAO airport designator
Station Type Date Time Source
KCEW METAR 2022/05/24 12:09 UTC NOAA

KCEW 241209Z AUTO 00000KT 1/2SM FG OVC002 22/21 A3003 RMK AO2 T02170211 TSNO


Station Type Date Time Source
KCEW Decoded METAR 2022/05/24 12:09 UTC NOAA

CRESTVIEW SIKES AIRPORT, FL, United States (KCEW) 30-46N 086-31W 55M
May 24, 2022 - 08:09 AM EDT / 2022.05.24 1209 UTC
Wind: Calm:0
Visibility: 1/2 mile(s):0
Sky conditions: overcast
Weather: fog
Temperature: 71.1 F (21.7 C)
Dew Point: 70.0 F (21.1 C)
Relative Humidity: 96%
Pressure (altimeter): 30.03 in. Hg (1016 hPa)
ob: KCEW 241209Z AUTO 00000KT 1/2SM FG OVC002 22/21 A3003 RMK AO2 T02170211 TSNO
cycle: 12

Station Type Date Time Source
KCEW TAF UTC NOAA

Error!

Example: see airport list